createdAt,value
2019-02-17T00:00:37.532Z,26.97
2019-02-17T00:03:05.842Z,28.73
2019-02-17T00:05:34.194Z,27.67
2019-02-17T00:08:02.393Z,30.12
2019-02-17T00:10:30.622Z,30.70
2019-02-17T00:12:58.824Z,28.93
2019-02-17T00:15:27.042Z,29.10
2019-02-17T00:17:55.312Z,29.25
2019-02-17T00:20:23.524Z,27.95
2019-02-17T00:22:51.731Z,31.97
2019-02-17T00:25:20.481Z,30.90
2019-02-17T00:27:48.910Z,35.92
2019-02-17T00:30:17.479Z,28.57
2019-02-17T00:32:45.779Z,30.27
2019-02-17T00:35:14.037Z,28.70
2019-02-17T00:37:42.244Z,30.10
2019-02-17T00:40:10.451Z,28.85
2019-02-17T00:42:38.699Z,27.27
2019-02-17T00:45:07.012Z,29.90
2019-02-17T00:47:35.246Z,30.72
2019-02-17T00:50:07.125Z,31.17
2019-02-17T00:52:35.319Z,29.77
2019-02-17T00:55:03.607Z,30.88
2019-02-17T00:57:32.226Z,31.05
2019-02-17T01:00:00.500Z,35.25
2019-02-17T01:02:28.707Z,33.07
2019-02-17T01:04:56.915Z,35.33
2019-02-17T01:07:25.253Z,29.23
2019-02-17T01:09:53.475Z,30.82
2019-02-17T01:12:21.687Z,34.08
2019-02-17T01:14:49.899Z,32.53
2019-02-17T01:17:18.111Z,32.17
2019-02-17T01:19:46.335Z,31.15
2019-02-17T01:22:14.576Z,30.13
2019-02-17T01:24:43.885Z,30.93
2019-02-17T01:27:13.409Z,30.10
2019-02-17T01:29:41.618Z,28.97
2019-02-17T01:32:09.908Z,32.53
2019-02-17T01:34:38.927Z,29.95
2019-02-17T01:37:07.527Z,28.50
2019-02-17T01:39:37.497Z,30.03
2019-02-17T01:42:05.819Z,33.03
2019-02-17T01:44:34.035Z,29.07
2019-02-17T01:47:02.323Z,28.60
2019-02-17T01:49:30.625Z,28.67
2019-02-17T01:51:58.827Z,31.30
2019-02-17T01:54:27.038Z,30.15
2019-02-17T01:56:55.250Z,33.20
2019-02-17T01:59:30.451Z,29.27
2019-02-17T02:01:53.521Z,31.33
2019-02-17T02:04:21.732Z,30.97
2019-02-17T02:06:49.939Z,35.33
2019-02-17T02:09:18.139Z,36.55
2019-02-17T02:11:46.354Z,36.08
2019-02-17T02:14:14.592Z,39.10
2019-02-17T02:16:42.787Z,41.83
2019-02-17T02:19:10.990Z,39.67
2019-02-17T02:21:39.198Z,36.65
2019-02-17T02:24:07.407Z,35.70
2019-02-17T02:26:35.618Z,37.70
2019-02-17T02:29:03.831Z,36.45
2019-02-17T02:31:32.040Z,35.28
2019-02-17T02:34:00.242Z,36.65
2019-02-17T02:36:28.451Z,35.38
2019-02-17T02:38:56.659Z,34.38
2019-02-17T02:41:34.324Z,35.00
2019-02-17T02:43:54.762Z,36.33
2019-02-17T02:46:22.962Z,37.58
2019-02-17T02:48:52.155Z,34.88
2019-02-17T02:51:20.351Z,35.52
2019-02-17T02:53:48.559Z,39.50
2019-02-17T02:56:16.771Z,37.13
2019-02-17T02:58:44.984Z,35.05
2019-02-17T03:01:13.668Z,32.33
2019-02-17T03:03:41.871Z,32.73
2019-02-17T03:06:27.871Z,36.23
2019-02-17T03:08:56.087Z,35.63
2019-02-17T03:11:24.363Z,33.35
2019-02-17T03:13:52.571Z,35.65
2019-02-17T03:16:20.767Z,32.33
2019-02-17T03:18:49.000Z,31.42
2019-02-17T03:21:17.187Z,30.97
2019-02-17T03:23:45.385Z,37.30
2019-02-17T03:26:13.589Z,30.65
2019-02-17T03:28:41.850Z,33.15
2019-02-17T03:31:10.059Z,33.87
2019-02-17T03:33:38.260Z,37.95
2019-02-17T03:36:06.467Z,44.60
2019-02-17T03:38:34.672Z,42.58
2019-02-17T03:41:02.883Z,46.88
2019-02-17T03:43:31.102Z,44.77
2019-02-17T03:45:59.303Z,46.37
2019-02-17T03:48:27.515Z,39.42
2019-02-17T03:50:55.812Z,45.98
2019-02-17T03:53:24.015Z,44.27
2019-02-17T03:55:53.291Z,45.88
2019-02-17T03:58:22.463Z,41.30
2019-02-17T04:00:50.667Z,37.80
2019-02-17T04:03:18.863Z,36.50
2019-02-17T04:05:47.062Z,41.88
2019-02-17T04:08:15.342Z,38.58
2019-02-17T04:10:43.643Z,37.23
2019-02-17T04:13:11.852Z,39.90
2019-02-17T04:15:40.130Z,36.85
2019-02-17T04:18:08.328Z,35.90
2019-02-17T04:20:36.540Z,39.15
2019-02-17T04:23:04.743Z,36.13
2019-02-17T04:25:32.967Z,37.65
2019-02-17T04:28:01.152Z,34.90
2019-02-17T04:30:29.965Z,40.70
2019-02-17T04:32:58.359Z,39.18
2019-02-17T04:35:26.558Z,39.83
2019-02-17T04:37:54.760Z,36.60
2019-02-17T04:40:22.970Z,38.20
2019-02-17T04:42:51.251Z,35.08
2019-02-17T04:45:19.499Z,38.70
2019-02-17T04:47:47.694Z,39.98
2019-02-17T04:50:15.919Z,37.48
2019-02-17T04:52:44.119Z,39.73
2019-02-17T04:55:12.314Z,38.98
2019-02-17T04:57:40.510Z,39.58
2019-02-17T05:00:09.207Z,38.58
2019-02-17T05:02:37.407Z,37.73
2019-02-17T05:05:05.996Z,38.33
2019-02-17T05:07:34.192Z,34.67
2019-02-17T05:10:02.399Z,38.83
2019-02-17T05:12:30.587Z,35.30
2019-02-17T05:14:58.793Z,36.90
2019-02-17T05:17:26.996Z,35.68
2019-02-17T05:19:55.223Z,41.53
2019-02-17T05:22:23.410Z,36.08
2019-02-17T05:24:51.628Z,37.38
2019-02-17T05:27:19.871Z,37.70
2019-02-17T05:29:48.099Z,41.03
2019-02-17T05:32:16.307Z,37.30
2019-02-17T05:34:44.492Z,35.70
2019-02-17T05:37:12.711Z,34.73
2019-02-17T05:39:40.923Z,38.75
2019-02-17T05:42:09.123Z,39.42
2019-02-17T05:44:37.318Z,42.73
2019-02-17T05:47:05.543Z,45.25
2019-02-17T05:49:33.737Z,41.80
2019-02-17T05:52:01.938Z,36.93
2019-02-17T05:54:30.160Z,34.75
2019-02-17T05:56:58.360Z,34.95
2019-02-17T05:59:26.575Z,38.33
2019-02-17T06:01:54.794Z,39.58
2019-02-17T06:04:22.985Z,38.23
2019-02-17T06:06:51.199Z,39.95
2019-02-17T06:09:19.408Z,41.10
2019-02-17T06:11:47.628Z,39.98
2019-02-17T06:14:15.814Z,44.77
2019-02-17T06:16:44.028Z,41.85
2019-02-17T06:19:12.239Z,38.65
2019-02-17T06:21:40.439Z,36.50
2019-02-17T06:24:08.631Z,38.48
2019-02-17T06:26:36.836Z,33.55
2019-02-17T06:29:05.047Z,40.00
2019-02-17T06:31:33.251Z,34.13
2019-02-17T06:34:01.442Z,39.27
2019-02-17T06:36:29.642Z,39.83
2019-02-17T06:38:57.850Z,41.92
2019-02-17T06:41:26.059Z,43.70
2019-02-17T06:43:54.259Z,40.75
2019-02-17T06:46:26.419Z,42.53
2019-02-17T06:48:54.635Z,40.43
2019-02-17T06:51:22.838Z,44.73
2019-02-17T06:53:51.034Z,39.75
2019-02-17T06:56:27.791Z,42.75
2019-02-17T06:58:56.003Z,43.58
2019-02-17T07:01:25.004Z,44.95
2019-02-17T07:03:53.420Z,41.58
2019-02-17T07:06:28.008Z,36.88
2019-02-17T07:08:56.219Z,42.78
2019-02-17T07:11:24.458Z,39.60
2019-02-17T07:13:52.705Z,41.42
2019-02-17T07:16:22.430Z,38.25
2019-02-17T07:18:50.654Z,37.35
2019-02-17T07:21:18.846Z,39.03
2019-02-17T07:23:47.070Z,36.13
2019-02-17T07:26:17.106Z,38.88
2019-02-17T07:28:45.154Z,42.43
2019-02-17T07:31:13.359Z,36.90
2019-02-17T07:33:41.567Z,36.83
2019-02-17T07:36:09.763Z,34.67
2019-02-17T07:38:37.976Z,36.93
2019-02-17T07:41:06.175Z,38.02
2019-02-17T07:43:34.386Z,32.67
2019-02-17T07:46:02.583Z,35.60
2019-02-17T07:48:30.806Z,40.40
2019-02-17T07:50:58.991Z,38.48
2019-02-17T07:53:27.203Z,39.47
2019-02-17T07:55:55.395Z,44.13
2019-02-17T07:58:23.594Z,42.35
2019-02-17T08:00:52.787Z,42.25
2019-02-17T08:03:21.081Z,39.13
2019-02-17T08:05:49.423Z,43.30
2019-02-17T08:08:17.630Z,39.30
2019-02-17T08:10:45.880Z,46.63
2019-02-17T08:13:14.143Z,44.42
2019-02-17T08:15:42.437Z,47.70
2019-02-17T08:18:10.701Z,44.95
2019-02-17T08:20:38.945Z,42.00
2019-02-17T08:23:07.246Z,40.17
2019-02-17T08:25:35.463Z,45.67
2019-02-17T08:28:03.773Z,51.43
2019-02-17T08:30:32.062Z,53.43
2019-02-17T08:33:00.266Z,44.93
2019-02-17T08:35:28.519Z,45.30
2019-02-17T08:37:56.722Z,43.63
2019-02-17T08:40:24.934Z,40.97
2019-02-17T08:42:53.143Z,42.03
2019-02-17T08:45:21.428Z,42.35
2019-02-17T08:47:49.623Z,47.60
2019-02-17T08:50:19.928Z,47.20
2019-02-17T08:52:48.094Z,44.75
2019-02-17T08:55:16.466Z,47.25
2019-02-17T08:57:44.769Z,43.63
2019-02-17T09:00:13.245Z,47.80
2019-02-17T09:02:41.514Z,47.27
2019-02-17T09:05:10.288Z,48.45
2019-02-17T09:07:38.503Z,55.28
2019-02-17T09:10:07.684Z,53.27
2019-02-17T09:12:35.879Z,58.00
2019-02-17T09:15:04.528Z,59.33
2019-02-17T09:17:33.819Z,60.48
2019-02-17T09:20:02.047Z,60.70
2019-02-17T09:22:30.310Z,56.00
2019-02-17T09:24:58.567Z,52.80
2019-02-17T09:27:26.829Z,49.20
2019-02-17T09:29:55.119Z,50.23
2019-02-17T09:32:23.336Z,50.83
2019-02-17T09:34:51.578Z,47.48
2019-02-17T09:37:19.824Z,44.33
2019-02-17T09:39:48.114Z,43.30
2019-02-17T09:42:17.414Z,42.98
2019-02-17T09:44:45.627Z,43.60
2019-02-17T09:47:13.847Z,39.80
2019-02-17T09:49:46.707Z,42.20
2019-02-17T09:52:16.434Z,49.57
2019-02-17T09:54:46.033Z,41.67
2019-02-17T09:57:20.523Z,47.77
2019-02-17T09:59:48.859Z,35.60
2019-02-17T10:02:26.237Z,40.10
2019-02-17T10:04:47.066Z,39.13
2019-02-17T10:07:15.358Z,41.60
2019-02-17T10:09:43.589Z,36.60
2019-02-17T10:12:11.970Z,35.73
2019-02-17T10:14:40.281Z,43.20
2019-02-17T10:17:08.540Z,37.40
2019-02-17T10:19:36.871Z,43.47
2019-02-17T10:22:05.329Z,41.02
2019-02-17T10:24:33.543Z,36.42
2019-02-17T10:27:01.766Z,38.67
2019-02-17T10:29:30.004Z,37.00
2019-02-17T10:31:58.243Z,36.93
2019-02-17T10:34:26.535Z,37.05
2019-02-17T10:36:54.930Z,32.87
2019-02-17T10:39:23.219Z,36.90
2019-02-17T10:41:51.512Z,35.17
2019-02-17T10:44:19.727Z,40.08
2019-02-17T10:48:45.204Z,37.00
2019-02-17T10:51:13.527Z,38.70
2019-02-17T10:53:41.735Z,33.77
2019-02-17T10:56:10.038Z,37.90
2019-02-17T10:58:38.295Z,37.40
2019-02-17T11:01:06.527Z,41.43
2019-02-17T11:03:34.731Z,33.37
2019-02-17T11:06:02.991Z,35.33
2019-02-17T11:08:31.364Z,31.77
2019-02-17T11:10:59.596Z,30.92
2019-02-17T11:13:27.806Z,36.73
2019-02-17T11:15:56.107Z,37.03
2019-02-17T11:18:24.326Z,33.93
2019-02-17T11:20:52.539Z,34.18
2019-02-17T11:23:20.767Z,35.53
2019-02-17T11:25:48.964Z,31.53
2019-02-17T11:28:17.193Z,33.10
2019-02-17T11:30:45.479Z,37.33
2019-02-17T11:33:13.691Z,33.53
2019-02-17T11:35:41.934Z,35.68
2019-02-17T11:38:10.295Z,30.23
2019-02-17T11:40:38.599Z,36.23
2019-02-17T11:43:06.832Z,32.73
2019-02-17T11:45:35.008Z,35.73
2019-02-17T11:48:03.218Z,30.77
2019-02-17T11:50:31.450Z,35.93
2019-02-17T11:52:59.679Z,36.23
2019-02-17T11:55:27.912Z,34.88
2019-02-17T11:57:56.114Z,36.77
2019-02-17T12:00:24.383Z,36.48
2019-02-17T12:02:52.686Z,36.05
2019-02-17T12:05:20.934Z,35.70
2019-02-17T12:07:49.256Z,30.20
2019-02-17T12:10:17.464Z,30.88
2019-02-17T12:12:45.683Z,37.33
2019-02-17T12:15:14.266Z,33.03
2019-02-17T12:17:42.548Z,33.50
2019-02-17T12:20:31.719Z,31.40
2019-02-17T12:23:04.602Z,35.53
2019-02-17T12:25:38.780Z,33.00
2019-02-17T12:28:18.023Z,37.47
2019-02-17T12:30:49.343Z,31.60
2019-02-17T12:33:20.619Z,32.13
2019-02-17T12:35:47.492Z,39.42
2019-02-17T12:38:15.703Z,34.40
2019-02-17T12:40:43.909Z,36.83
2019-02-17T12:43:12.182Z,35.00
2019-02-17T12:45:40.459Z,34.20
2019-02-17T12:48:08.676Z,35.85
2019-02-17T12:50:36.883Z,35.80
2019-02-17T12:53:05.211Z,36.05
2019-02-17T12:55:33.421Z,35.37
2019-02-17T12:58:01.641Z,36.23
2019-02-17T13:00:29.914Z,36.00
2019-02-17T13:02:58.116Z,33.73
2019-02-17T13:05:26.317Z,32.53
2019-02-17T13:07:54.523Z,32.07
2019-02-17T13:10:22.723Z,33.70
2019-02-17T13:12:51.014Z,34.45
2019-02-17T13:15:19.211Z,35.23
2019-02-17T13:17:47.423Z,32.80
2019-02-17T13:20:15.664Z,33.93
2019-02-17T13:22:44.935Z,34.47
2019-02-17T13:25:13.167Z,30.27
2019-02-17T13:27:41.386Z,31.50
2019-02-17T13:30:11.519Z,29.70
2019-02-17T13:32:40.407Z,26.40
2019-02-17T13:35:10.728Z,27.53
2019-02-17T13:37:38.999Z,32.25
2019-02-17T13:40:07.907Z,30.08
2019-02-17T13:42:36.106Z,30.45
2019-02-17T13:45:04.421Z,31.80
2019-02-17T13:47:33.752Z,32.10
2019-02-17T13:50:02.027Z,28.23
2019-02-17T13:52:32.020Z,31.97
2019-02-17T13:55:00.330Z,31.85
2019-02-17T13:57:28.514Z,30.97
2019-02-17T13:59:59.002Z,33.07
2019-02-17T14:02:28.449Z,31.27
2019-02-17T14:04:57.622Z,28.47
2019-02-17T14:07:28.108Z,27.27
2019-02-17T14:09:57.980Z,27.70
2019-02-17T14:12:26.426Z,33.03
2019-02-17T14:14:55.653Z,35.63
2019-02-17T14:17:24.068Z,33.55
2019-02-17T14:19:53.012Z,27.97
2019-02-17T14:22:21.639Z,31.70
2019-02-17T14:24:50.980Z,29.48
2019-02-17T14:27:19.986Z,28.23
2019-02-17T14:29:48.789Z,27.85
2019-02-17T14:32:17.644Z,28.90
2019-02-17T14:34:46.892Z,34.10
2019-02-17T14:37:15.323Z,30.23
2019-02-17T14:39:43.644Z,30.97
2019-02-17T14:42:11.884Z,28.65
2019-02-17T14:44:40.204Z,29.10
2019-02-17T14:47:09.792Z,28.73
2019-02-17T14:49:38.092Z,29.70
2019-02-17T14:52:06.323Z,28.67
2019-02-17T14:54:34.552Z,31.90
2019-02-17T14:57:08.611Z,32.17
2019-02-17T14:59:36.843Z,32.97
2019-02-17T15:02:05.059Z,35.52
2019-02-17T15:04:33.412Z,34.18
2019-02-17T15:07:01.760Z,31.83
2019-02-17T15:09:30.011Z,31.70
2019-02-17T15:11:58.211Z,31.90
2019-02-17T15:14:28.521Z,31.55
2019-02-17T15:16:56.788Z,32.23
2019-02-17T15:19:25.015Z,30.87
2019-02-17T15:21:53.260Z,31.55
2019-02-17T15:24:21.448Z,29.00
2019-02-17T15:26:49.697Z,31.85
2019-02-17T15:29:21.967Z,30.70
2019-02-17T15:31:50.191Z,29.20
2019-02-17T15:34:19.428Z,27.62
2019-02-17T15:36:52.700Z,32.98
2019-02-17T15:39:20.931Z,29.85
2019-02-17T15:41:49.155Z,26.90
2019-02-17T15:44:17.444Z,30.90
2019-02-17T15:46:45.759Z,27.25
2019-02-17T15:49:15.183Z,34.57
2019-02-17T15:51:43.835Z,34.67
2019-02-17T15:54:12.043Z,34.20
2019-02-17T15:56:40.359Z,29.10
2019-02-17T15:59:12.439Z,39.50
2019-02-17T16:01:40.805Z,33.42
2019-02-17T16:04:09.139Z,31.87
2019-02-17T16:06:37.450Z,32.20
2019-02-17T16:09:06.293Z,32.37
2019-02-17T16:11:36.603Z,32.15
2019-02-17T16:14:04.815Z,31.65
2019-02-17T16:16:35.069Z,33.40
2019-02-17T16:19:04.376Z,32.25
2019-02-17T16:21:32.620Z,35.30
2019-02-17T16:24:01.848Z,32.33
2019-02-17T16:26:30.123Z,35.73
2019-02-17T16:28:58.399Z,33.83
2019-02-17T16:31:26.673Z,35.15
2019-02-17T16:33:54.960Z,34.53
2019-02-17T16:36:23.603Z,34.60
2019-02-17T16:38:51.918Z,33.98
2019-02-17T16:41:21.223Z,34.83
2019-02-17T16:43:49.427Z,38.55
2019-02-17T16:46:17.638Z,54.53
2019-02-17T16:48:47.907Z,128.80
2019-02-17T16:51:16.135Z,121.30
2019-02-17T16:53:44.424Z,96.00
2019-02-17T16:56:12.647Z,86.08
2019-02-17T16:58:42.961Z,58.02
2019-02-17T17:01:11.232Z,45.48
2019-02-17T17:03:39.495Z,41.10
2019-02-17T17:06:07.707Z,42.90
2019-02-17T17:08:35.947Z,47.10
2019-02-17T17:11:04.279Z,45.27
2019-02-17T17:13:32.551Z,36.77
2019-02-17T17:16:00.819Z,38.13
2019-02-17T17:18:35.127Z,35.00
2019-02-17T17:21:05.443Z,35.35
2019-02-17T17:23:33.676Z,39.05
2019-02-17T17:26:01.894Z,33.20
2019-02-17T17:28:35.351Z,33.70
2019-02-17T17:31:03.569Z,32.37
2019-02-17T17:33:37.615Z,36.17
2019-02-17T17:36:05.849Z,35.40
2019-02-17T17:38:34.059Z,40.05
2019-02-17T17:41:02.405Z,40.40
2019-02-17T17:43:36.502Z,44.67
2019-02-17T17:46:04.718Z,39.65
2019-02-17T17:48:33.046Z,39.53
2019-02-17T17:51:02.354Z,35.33
2019-02-17T17:53:30.567Z,38.30
2019-02-17T17:55:58.807Z,32.83
2019-02-17T17:58:27.036Z,36.10
2019-02-17T18:00:55.286Z,33.78
2019-02-17T18:03:23.620Z,33.50
2019-02-17T18:05:54.983Z,33.90
2019-02-17T18:08:23.208Z,37.00
2019-02-17T18:10:51.503Z,35.90
2019-02-17T18:13:21.949Z,35.07
2019-02-17T18:15:53.619Z,39.85
2019-02-17T18:18:21.930Z,36.20
2019-02-17T18:20:51.870Z,31.17
2019-02-17T18:23:20.106Z,32.47
2019-02-17T18:25:48.321Z,31.48
2019-02-17T18:28:17.606Z,36.70
2019-02-17T18:30:45.935Z,36.40
2019-02-17T18:33:15.259Z,36.70
2019-02-17T18:35:43.478Z,30.75
2019-02-17T18:38:11.703Z,36.88
2019-02-17T18:40:45.043Z,33.00
2019-02-17T18:43:11.936Z,32.83
2019-02-17T18:45:40.209Z,32.88
2019-02-17T18:48:08.496Z,32.85
2019-02-17T18:50:37.772Z,33.23
2019-02-17T18:53:05.995Z,31.80
2019-02-17T18:55:34.211Z,32.57
2019-02-17T18:58:02.555Z,34.15
2019-02-17T19:00:30.774Z,32.10
2019-02-17T19:03:06.631Z,34.30
2019-02-17T19:05:35.007Z,33.47
2019-02-17T19:08:03.325Z,34.40
2019-02-17T19:10:34.805Z,32.08
2019-02-17T19:13:04.336Z,33.13
2019-02-17T19:15:32.602Z,35.55
2019-02-17T19:18:00.917Z,36.93
2019-02-17T19:20:29.135Z,36.43
2019-02-17T19:22:57.452Z,38.82
2019-02-17T19:25:25.663Z,39.77
2019-02-17T19:27:53.891Z,50.67
2019-02-17T19:30:22.239Z,49.05
2019-02-17T19:32:50.589Z,47.98
2019-02-17T19:35:18.951Z,41.85
2019-02-17T19:37:48.848Z,40.12
2019-02-17T19:40:17.188Z,36.30
2019-02-17T19:42:45.599Z,37.10
2019-02-17T19:45:13.807Z,36.23
2019-02-17T19:47:43.143Z,38.10
2019-02-17T19:50:11.480Z,40.40
2019-02-17T19:52:39.692Z,39.87
2019-02-17T19:55:08.135Z,37.67
2019-02-17T19:57:36.451Z,34.13
2019-02-17T20:00:05.171Z,36.50
2019-02-17T20:02:46.689Z,34.53
2019-02-17T20:05:17.199Z,30.17
2019-02-17T20:07:45.538Z,29.87
2019-02-17T20:10:14.131Z,31.80
2019-02-17T20:12:42.439Z,27.80
2019-02-17T20:15:10.703Z,31.95
2019-02-17T20:17:38.943Z,34.40
2019-02-17T20:20:07.191Z,34.53
2019-02-17T20:22:35.514Z,29.77
2019-02-17T20:25:04.094Z,31.40
2019-02-17T20:27:32.540Z,34.70
2019-02-17T20:30:00.780Z,29.48
2019-02-17T20:32:29.031Z,28.98
2019-02-17T20:34:58.520Z,31.67
2019-02-17T20:37:29.883Z,27.17
2019-02-17T20:39:58.088Z,29.77
2019-02-17T20:42:26.394Z,32.10
2019-02-17T20:44:54.641Z,29.35
2019-02-17T20:47:22.971Z,33.05
2019-02-17T20:49:51.292Z,31.02
2019-02-17T20:52:19.515Z,31.93
2019-02-17T20:54:47.922Z,26.20
2019-02-17T20:57:16.399Z,28.13
2019-02-17T20:59:44.705Z,30.07
2019-02-17T21:02:16.096Z,29.52
2019-02-17T21:04:44.408Z,29.32
2019-02-17T21:07:12.822Z,29.85
2019-02-17T21:09:41.029Z,27.30
2019-02-17T21:12:09.395Z,30.67
2019-02-17T21:14:37.741Z,34.13
2019-02-17T21:17:29.943Z,35.23
2019-02-17T21:20:00.811Z,27.82
2019-02-17T21:22:29.132Z,26.25
2019-02-17T21:24:57.484Z,26.55
2019-02-17T21:27:25.696Z,25.60
2019-02-17T21:29:53.935Z,24.87
2019-02-17T21:32:22.403Z,27.02
2019-02-17T21:34:50.691Z,26.52
2019-02-17T21:37:18.955Z,27.97
2019-02-17T21:39:47.246Z,25.30
2019-02-17T21:42:15.487Z,24.70
2019-02-17T21:44:43.751Z,25.20
2019-02-17T21:47:11.955Z,25.20
2019-02-17T21:49:40.250Z,25.52
2019-02-17T21:52:08.633Z,29.30
2019-02-17T21:54:36.897Z,25.37
2019-02-17T21:57:05.191Z,25.37
2019-02-17T21:59:33.510Z,25.80
2019-02-17T22:02:01.820Z,24.05
2019-02-17T22:04:31.131Z,25.37
2019-02-17T22:06:59.399Z,26.43
2019-02-17T22:09:27.870Z,26.70
2019-02-17T22:11:56.179Z,25.83
2019-02-17T22:14:24.418Z,22.65
2019-02-17T22:16:53.734Z,25.97
2019-02-17T22:19:22.035Z,24.98
2019-02-17T22:21:50.290Z,23.65
2019-02-17T22:24:18.522Z,24.77
2019-02-17T22:26:46.879Z,21.25
2019-02-17T22:29:15.127Z,21.13
2019-02-17T22:31:43.695Z,22.20
2019-02-17T22:34:13.041Z,23.55
2019-02-17T22:36:43.995Z,21.67
2019-02-17T22:39:12.427Z,21.03
2019-02-17T22:41:40.636Z,21.27
2019-02-17T22:44:09.107Z,23.38
2019-02-17T22:46:37.337Z,23.02
2019-02-17T22:49:05.764Z,24.50
2019-02-17T22:51:34.107Z,26.55
2019-02-17T22:54:02.399Z,22.60
2019-02-17T22:56:30.591Z,23.92
2019-02-17T22:58:58.815Z,23.70
2019-02-17T23:01:30.684Z,26.17
2019-02-17T23:03:58.983Z,23.27
2019-02-17T23:06:27.226Z,24.98
2019-02-17T23:08:55.510Z,21.23
2019-02-17T23:11:23.713Z,22.35
2019-02-17T23:13:51.906Z,23.22
2019-02-17T23:16:20.196Z,23.47
2019-02-17T23:18:48.416Z,25.75
2019-02-17T23:21:16.635Z,23.45
2019-02-17T23:23:44.852Z,23.33
2019-02-17T23:26:13.057Z,24.57
2019-02-17T23:28:41.265Z,24.00
2019-02-17T23:31:09.541Z,19.85
2019-02-17T23:33:37.760Z,22.13
2019-02-17T23:36:05.972Z,23.30
2019-02-17T23:38:34.171Z,19.97
2019-02-17T23:41:02.376Z,22.82
2019-02-17T23:43:30.578Z,19.82
2019-02-17T23:45:58.813Z,21.45
2019-02-17T23:48:27.002Z,20.50
2019-02-17T23:50:55.219Z,20.43
2019-02-17T23:53:23.431Z,22.17
2019-02-17T23:55:51.663Z,21.30
2019-02-17T23:58:19.880Z,19.42
